Time;durP1;ratioP1;P1;durP2;ratioP2;P2;SDS_P1;SDS_P2;PMS_P1;PMS_P2;Temp;Humidity;BMP_temperature;BMP_pressure;BME280_temperature;BME280_humidity;BME280_pressure;Samples;Min_cycle;Max_cycle;Signal;HPM_P1;HPM_P2
2023/07/31 00:01:46;;;;;;;;;;;25.80;57.10;;;;;;5113014;28;20018;-55
2023/07/31 00:04:13;;;;;;;;;;;25.80;57.10;;;;;;5112716;28;19962;-55
2023/07/31 00:06:40;;;;;;;;;;;25.80;57.10;;;;;;5113604;28;19924;-55
2023/07/31 00:09:08;;;;;;;;;;;25.80;57.20;;;;;;5113569;28;19946;-55
2023/07/31 00:11:35;;;;;;;;;;;25.80;57.20;;;;;;5112150;28;19927;-55
2023/07/31 00:14:02;;;;;;;;;;;25.80;57.20;;;;;;5113213;28;19923;-55
2023/07/31 00:16:29;;;;;;;;;;;25.80;57.20;;;;;;5113669;28;19923;-55
2023/07/31 00:18:56;;;;;;;;;;;25.70;57.20;;;;;;5112973;28;19928;-55
2023/07/31 00:21:23;;;;;;;;;;;25.70;57.20;;;;;;5116681;28;20380;-55
2023/07/31 00:23:50;;;;;;;;;;;25.80;57.30;;;;;;5115546;28;19971;-53
2023/07/31 00:26:17;;;;;;;;;;;25.80;57.30;;;;;;5116694;28;20025;-53
2023/07/31 00:28:45;;;;;;;;;;;25.70;57.20;;;;;;5116896;28;19927;-54
2023/07/31 00:31:11;;;;;;;;;;;25.70;57.20;;;;;;5107251;28;19931;-54
2023/07/31 00:33:39;;;;;;;;;;;25.70;57.20;;;;;;5095506;28;19924;-53
2023/07/31 00:36:05;;;;;;;;;;;25.70;57.30;;;;;;5096414;28;19969;-55
2023/07/31 00:38:33;;;;;;;;;;;25.70;57.30;;;;;;5097111;28;20362;-56
2023/07/31 00:41:00;;;;;;;;;;;25.70;57.30;;;;;;5096488;28;20014;-54
2023/07/31 00:43:27;;;;;;;;;;;25.70;57.30;;;;;;5096134;28;20295;-55
2023/07/31 00:45:53;;;;;;;;;;;25.70;57.30;;;;;;5096727;28;19924;-55
2023/07/31 00:48:21;;;;;;;;;;;25.70;57.30;;;;;;5096750;28;19924;-55
2023/07/31 00:50:48;;;;;;;;;;;25.70;57.30;;;;;;5074969;28;19967;-55
2023/07/31 00:53:15;;;;;;;;;;;25.70;57.30;;;;;;5076054;28;19928;-55
2023/07/31 00:55:43;;;;;;;;;;;25.70;57.30;;;;;;5095615;28;19959;-55
2023/07/31 00:58:10;;;;;;;;;;;25.70;57.30;;;;;;5096335;28;20023;-54
2023/07/31 01:00:37;;;;;;;;;;;25.70;57.30;;;;;;5096282;28;20295;-52
2023/07/31 01:03:04;;;;;;;;;;;25.70;57.30;;;;;;5096338;28;19975;-54
2023/07/31 01:05:51;;;;;;;;;;;25.70;57.30;;;;;;5115741;28;19923;-54
2023/07/31 01:08:37;;;;;;;;;;;25.70;57.30;;;;;;5115326;28;19973;-53
2023/07/31 01:11:14;;;;;;;;;;;25.70;57.30;;;;;;5075776;28;19979;-53
2023/07/31 01:13:42;;;;;;;;;;;25.70;57.30;;;;;;5077848;28;19924;-55
2023/07/31 01:16:09;;;;;;;;;;;25.70;57.30;;;;;;5095401;28;19960;-53
2023/07/31 01:18:36;;;;;;;;;;;25.70;57.30;;;;;;5096261;28;20007;-54
2023/07/31 01:21:23;;;;;;;;;;;25.70;57.30;;;;;;5095896;28;19970;-54
2023/07/31 01:24:04;;;;;;;;;;;25.70;57.40;;;;;;5094784;28;19925;-54
2023/07/31 01:26:34;;;;;;;;;;;25.70;57.40;;;;;;5096050;28;20031;-53
2023/07/31 01:29:16;;;;;;;;;;;25.60;57.30;;;;;;5098898;28;19927;-55
2023/07/31 01:31:45;;;;;;;;;;;25.70;57.30;;;;;;5115046;28;19970;-54
2023/07/31 01:34:14;;;;;;;;;;;25.70;57.30;;;;;;5115900;28;19924;-54
2023/07/31 01:36:40;;;;;;;;;;;25.70;57.30;;;;;;5114639;28;19971;-56
2023/07/31 01:39:08;;;;;;;;;;;25.70;57.30;;;;;;5115493;28;20372;-55
2023/07/31 01:41:35;;;;;;;;;;;25.60;57.10;;;;;;5115303;28;19927;-55
2023/07/31 01:44:01;;;;;;;;;;;25.70;57.20;;;;;;5115457;28;19932;-55
2023/07/31 01:46:29;;;;;;;;;;;25.70;57.20;;;;;;5114787;28;19971;-55
2023/07/31 01:48:56;;;;;;;;;;;25.70;57.10;;;;;;5102261;28;19974;-54
2023/07/31 01:51:23;;;;;;;;;;;25.70;57.10;;;;;;5094331;28;19970;-56
2023/07/31 01:53:50;;;;;;;;;;;25.70;57.10;;;;;;5094745;28;20007;-54
2023/07/31 01:56:16;;;;;;;;;;;25.70;57.10;;;;;;5094516;28;20415;-55
2023/07/31 01:58:44;;;;;;;;;;;25.70;57.10;;;;;;5094936;28;20027;-55
2023/07/31 02:01:11;;;;;;;;;;;25.70;57.10;;;;;;5093446;28;19930;-55
2023/07/31 02:03:38;;;;;;;;;;;25.70;57.10;;;;;;5095354;28;20012;-54
2023/07/31 02:06:05;;;;;;;;;;;25.70;57.10;;;;;;5094219;28;19935;-55
2023/07/31 02:08:32;;;;;;;;;;;25.70;57.10;;;;;;5094920;28;19951;-55
2023/07/31 02:10:59;;;;;;;;;;;25.70;57.10;;;;;;5094198;28;19931;-56
2023/07/31 02:13:26;;;;;;;;;;;25.70;57.10;;;;;;5094261;28;19924;-55
2023/07/31 02:15:53;;;;;;;;;;;25.70;57.10;;;;;;5094293;28;20019;-55
2023/07/31 02:18:22;;;;;;;;;;;25.70;57.20;;;;;;5094439;28;19928;-55
2023/07/31 02:20:49;;;;;;;;;;;25.70;57.20;;;;;;5093935;28;19973;-55
2023/07/31 02:23:18;;;;;;;;;;;25.60;57.10;;;;;;5094486;28;19934;-55
2023/07/31 02:25:45;;;;;;;;;;;25.60;57.10;;;;;;5094327;28;19924;-56
2023/07/31 02:28:12;;;;;;;;;;;25.60;57.20;;;;;;5094112;28;19924;-55
2023/07/31 02:30:39;;;;;;;;;;;25.60;57.20;;;;;;5093377;28;20660;-55
2023/07/31 02:33:06;;;;;;;;;;;25.60;57.20;;;;;;5094286;28;19932;-55
2023/07/31 02:35:33;;;;;;;;;;;25.60;57.30;;;;;;5094558;28;19924;-55
2023/07/31 02:38:00;;;;;;;;;;;25.60;57.20;;;;;;5094015;28;20425;-55
2023/07/31 02:40:27;;;;;;;;;;;25.60;57.20;;;;;;5093795;28;19967;-55
2023/07/31 02:42:54;;;;;;;;;;;25.60;57.20;;;;;;5093553;28;20022;-56
2023/07/31 02:45:20;;;;;;;;;;;25.60;57.20;;;;;;5093906;28;20030;-55
2023/07/31 02:47:48;;;;;;;;;;;25.60;57.20;;;;;;5093581;28;19924;-55
2023/07/31 02:50:15;;;;;;;;;;;25.50;57.20;;;;;;5093585;28;20292;-53
2023/07/31 02:52:42;;;;;;;;;;;25.60;57.20;;;;;;5094072;28;19970;-56
2023/07/31 02:55:09;;;;;;;;;;;25.60;57.20;;;;;;5093954;28;20456;-56
2023/07/31 02:57:36;;;;;;;;;;;25.60;57.30;;;;;;5093853;28;19989;-54
2023/07/31 03:00:06;;;;;;;;;;;25.60;57.30;;;;;;5093386;28;19925;-56
2023/07/31 03:02:33;;;;;;;;;;;25.60;57.20;;;;;;5093166;28;19924;-57
2023/07/31 03:05:00;;;;;;;;;;;25.60;57.30;;;;;;5093471;28;20284;-55
2023/07/31 03:07:27;;;;;;;;;;;25.60;57.20;;;;;;5094334;28;20432;-55
2023/07/31 03:09:54;;;;;;;;;;;25.60;57.20;;;;;;5113533;28;19924;-55
2023/07/31 03:12:21;;;;;;;;;;;25.60;57.20;;;;;;5112757;28;20396;-55
2023/07/31 03:14:47;;;;;;;;;;;25.60;57.20;;;;;;5113307;28;19971;-56
2023/07/31 03:17:15;;;;;;;;;;;25.60;57.20;;;;;;5114333;28;19924;-54
2023/07/31 03:19:42;;;;;;;;;;;25.60;57.20;;;;;;5113713;28;19993;-55
2023/07/31 03:22:08;;;;;;;;;;;25.50;57.10;;;;;;5111868;28;19934;-56
2023/07/31 03:24:36;;;;;;;;;;;25.60;57.20;;;;;;5112209;28;20379;-57
2023/07/31 03:27:03;;;;;;;;;;;25.50;57.10;;;;;;5112823;28;19923;-55
2023/07/31 03:29:30;;;;;;;;;;;25.50;57.10;;;;;;5113008;28;20014;-55
2023/07/31 03:31:57;;;;;;;;;;;25.50;57.10;;;;;;5094594;28;20011;-55
2023/07/31 03:34:24;;;;;;;;;;;25.50;57.10;;;;;;5093469;28;19924;-55
2023/07/31 03:36:51;;;;;;;;;;;25.60;57.20;;;;;;5092764;28;19924;-54
2023/07/31 03:39:18;;;;;;;;;;;25.60;57.20;;;;;;5092951;28;20435;-55
2023/07/31 03:41:45;;;;;;;;;;;25.60;57.10;;;;;;5092050;28;20018;-55
2023/07/31 03:44:12;;;;;;;;;;;25.60;57.10;;;;;;5112460;28;19924;-56
2023/07/31 03:46:39;;;;;;;;;;;25.60;57.00;;;;;;5092838;28;20432;-57
2023/07/31 03:49:06;;;;;;;;;;;25.60;57.00;;;;;;5092575;28;20384;-55
2023/07/31 03:51:33;;;;;;;;;;;25.60;56.90;;;;;;5092292;28;19924;-55
2023/07/31 03:54:00;;;;;;;;;;;25.60;56.90;;;;;;5092832;28;19924;-55
2023/07/31 03:56:27;;;;;;;;;;;25.60;56.90;;;;;;5098692;28;20459;-55
2023/07/31 03:58:54;;;;;;;;;;;25.70;56.90;;;;;;5095560;28;20006;-55
2023/07/31 04:01:22;;;;;;;;;;;25.70;56.90;;;;;;5088995;28;19932;-56
2023/07/31 04:03:49;;;;;;;;;;;25.70;57.30;;;;;;5098295;28;19925;-55
2023/07/31 04:06:18;;;;;;;;;;;25.70;56.80;;;;;;5086332;28;19928;-55
2023/07/31 04:08:47;;;;;;;;;;;25.70;56.70;;;;;;5084075;28;19939;-55
2023/07/31 04:11:15;;;;;;;;;;;25.70;56.60;;;;;;5090206;28;19932;-54
2023/07/31 04:13:42;;;;;;;;;;;25.70;56.70;;;;;;5082635;28;19954;-55
2023/07/31 04:16:09;;;;;;;;;;;25.70;56.60;;;;;;5082340;28;19925;-55
2023/07/31 04:18:36;;;;;;;;;;;25.70;56.60;;;;;;5083083;28;19932;-54
2023/07/31 04:21:03;;;;;;;;;;;25.70;56.60;;;;;;5085287;28;19967;-55
2023/07/31 04:23:30;;;;;;;;;;;25.70;56.60;;;;;;5085759;28;19929;-55
2023/07/31 04:25:57;;;;;;;;;;;25.70;56.60;;;;;;5086197;28;19928;-55
2023/07/31 04:28:25;;;;;;;;;;;25.70;56.60;;;;;;5075072;28;19972;-56
2023/07/31 04:30:53;;;;;;;;;;;25.70;56.50;;;;;;5085655;28;19924;-55
2023/07/31 04:33:20;;;;;;;;;;;25.70;56.50;;;;;;5085858;28;19925;-56
2023/07/31 04:35:52;;;;;;;;;;;25.70;56.40;;;;;;5086546;28;19924;-56
2023/07/31 04:38:20;;;;;;;;;;;25.70;56.50;;;;;;5085839;28;20335;-54
2023/07/31 04:40:47;;;;;;;;;;;25.70;56.60;;;;;;5090394;28;19934;-58
2023/07/31 04:43:13;;;;;;;;;;;25.50;56.50;;;;;;5086359;28;20389;-55
2023/07/31 04:45:42;;;;;;;;;;;25.40;56.60;;;;;;5089807;28;19928;-56
2023/07/31 04:48:09;;;;;;;;;;;25.20;55.40;;;;;;5088334;28;19982;-55
2023/07/31 04:50:36;;;;;;;;;;;24.90;53.70;;;;;;5081587;28;20026;-55
2023/07/31 04:53:03;;;;;;;;;;;24.60;52.50;;;;;;5080457;28;20392;-55
2023/07/31 04:55:30;;;;;;;;;;;24.30;51.10;;;;;;5080740;28;19924;-55
2023/07/31 04:57:58;;;;;;;;;;;24.00;50.40;;;;;;5096624;28;19971;-54
2023/07/31 05:00:25;;;;;;;;;;;23.70;50.00;;;;;;5093724;28;19923;-56
2023/07/31 05:02:52;;;;;;;;;;;23.40;49.90;;;;;;5083992;28;20010;-55
2023/07/31 05:05:19;;;;;;;;;;;23.20;49.30;;;;;;5082528;28;20422;-55
2023/07/31 05:07:46;;;;;;;;;;;22.90;49.20;;;;;;5083107;28;19986;-56
2023/07/31 05:10:13;;;;;;;;;;;22.60;49.30;;;;;;5081878;28;20022;-55
2023/07/31 05:12:40;;;;;;;;;;;22.30;48.20;;;;;;5089976;28;19969;-57
2023/07/31 05:15:07;;;;;;;;;;;22.10;48.40;;;;;;5080537;28;19933;-55
2023/07/31 05:17:34;;;;;;;;;;;21.80;48.80;;;;;;5085052;28;19928;-56
2023/07/31 05:20:01;;;;;;;;;;;21.60;52.00;;;;;;5077759;28;19924;-60
2023/07/31 05:22:28;;;;;;;;;;;21.40;50.40;;;;;;5085241;28;19942;-59
2023/07/31 05:24:55;;;;;;;;;;;21.20;51.20;;;;;;5081450;28;19970;-59
2023/07/31 05:27:22;;;;;;;;;;;21.10;51.20;;;;;;5074688;28;20404;-59
2023/07/31 05:29:49;;;;;;;;;;;21.00;51.90;;;;;;5072822;28;19936;-57
2023/07/31 05:32:16;;;;;;;;;;;20.90;52.90;;;;;;5070580;28;20011;-59
2023/07/31 05:34:43;;;;;;;;;;;20.80;53.20;;;;;;5069143;28;20026;-59
2023/07/31 05:37:11;;;;;;;;;;;20.70;52.60;;;;;;5073659;28;20358;-59
2023/07/31 05:39:38;;;;;;;;;;;20.60;52.50;;;;;;5080143;28;19932;-59
2023/07/31 05:42:05;;;;;;;;;;;20.60;53.30;;;;;;5083481;28;19933;-61
2023/07/31 05:44:32;;;;;;;;;;;20.50;53.10;;;;;;5081780;28;20023;-60
2023/07/31 05:46:59;;;;;;;;;;;20.40;52.00;;;;;;5075295;28;20341;-60
2023/07/31 05:49:27;;;;;;;;;;;20.30;52.40;;;;;;5076039;28;19956;-60
2023/07/31 05:51:54;;;;;;;;;;;20.30;52.30;;;;;;5076153;28;20400;-61
2023/07/31 05:54:21;;;;;;;;;;;20.20;52.60;;;;;;5076921;28;19963;-62
2023/07/31 05:56:48;;;;;;;;;;;20.10;52.70;;;;;;5077843;28;19971;-60
2023/07/31 05:59:16;;;;;;;;;;;20.10;53.50;;;;;;5077456;28;20011;-61
2023/07/31 06:01:43;;;;;;;;;;;20.10;53.80;;;;;;5075223;28;20015;-60
2023/07/31 06:04:10;;;;;;;;;;;20.00;54.10;;;;;;5073806;28;19993;-62
2023/07/31 06:09:57;;;;;;;;;;;20.00;54.30;;;;;;5073853;28;19929;-59
2023/07/31 06:12:24;;;;;;;;;;;19.90;54.20;;;;;;5072967;28;19932;-58
2023/07/31 06:14:51;;;;;;;;;;;19.90;54.20;;;;;;5076980;28;19928;-59
2023/07/31 06:17:18;;;;;;;;;;;19.80;54.50;;;;;;5077114;28;19978;-59
2023/07/31 06:19:45;;;;;;;;;;;19.80;54.30;;;;;;5086383;28;20557;-58
2023/07/31 06:22:12;;;;;;;;;;;19.80;54.50;;;;;;5078049;28;19954;-59
2023/07/31 06:24:39;;;;;;;;;;;19.70;55.30;;;;;;5073672;28;19932;-59
2023/07/31 06:27:06;;;;;;;;;;;19.70;55.50;;;;;;5074725;28;20038;-59
2023/07/31 06:29:34;;;;;;;;;;;19.60;54.90;;;;;;5074008;28;20019;-59
2023/07/31 06:32:01;;;;;;;;;;;19.60;54.70;;;;;;5076487;28;19928;-61
2023/07/31 06:34:30;;;;;;;;;;;19.60;56.90;;;;;;5078707;28;19931;-60
2023/07/31 06:36:57;;;;;;;;;;;19.60;56.10;;;;;;5076869;28;20012;-60
2023/07/31 06:39:24;;;;;;;;;;;19.60;57.10;;;;;;5072523;28;19932;-60
2023/07/31 06:41:51;;;;;;;;;;;19.50;56.50;;;;;;5075615;28;19924;-60
2023/07/31 06:44:18;;;;;;;;;;;19.50;55.50;;;;;;5077245;28;19932;-61
2023/07/31 06:46:44;;;;;;;;;;;19.50;56.50;;;;;;5073133;28;20321;-62
2023/07/31 06:49:12;;;;;;;;;;;19.40;56.60;;;;;;5070071;28;19932;-61
2023/07/31 06:51:43;;;;;;;;;;;19.40;56.10;;;;;;5069771;28;19925;-60
2023/07/31 06:54:11;;;;;;;;;;;19.30;56.10;;;;;;5075289;28;20024;-61
2023/07/31 06:56:38;;;;;;;;;;;19.30;55.80;;;;;;5071881;28;19971;-60
2023/07/31 06:59:07;;;;;;;;;;;19.30;57.70;;;;;;5073856;28;19928;-60
2023/07/31 07:01:34;;;;;;;;;;;19.20;56.50;;;;;;5077670;28;20114;-59
2023/07/31 07:04:01;;;;;;;;;;;19.20;55.60;;;;;;5079179;28;19924;-62
2023/07/31 07:06:28;;;;;;;;;;;19.20;56.10;;;;;;5073102;28;20405;-62
2023/07/31 07:08:55;;;;;;;;;;;19.20;58.20;;;;;;5079696;28;19924;-61
2023/07/31 07:11:22;;;;;;;;;;;19.20;56.80;;;;;;5075624;28;19933;-61
2023/07/31 07:13:49;;;;;;;;;;;19.20;56.70;;;;;;5076362;28;19924;-62
2023/07/31 07:16:16;;;;;;;;;;;19.20;56.80;;;;;;5075655;28;19942;-61
2023/07/31 07:18:43;;;;;;;;;;;19.20;56.90;;;;;;5078775;28;19925;-59
2023/07/31 07:21:28;;;;;;;;;;;19.20;58.60;;;;;;5079337;28;20036;-61
2023/07/31 07:23:55;;;;;;;;;;;19.10;58.00;;;;;;5075482;28;19983;-59
2023/07/31 07:26:22;;;;;;;;;;;19.20;57.90;;;;;;5073786;28;19946;-60
2023/07/31 07:28:49;;;;;;;;;;;19.20;57.20;;;;;;5076919;28;19963;-60
2023/07/31 07:31:16;;;;;;;;;;;19.10;56.90;;;;;;5072297;28;19940;-59
2023/07/31 07:33:44;;;;;;;;;;;19.20;57.90;;;;;;5074869;28;20339;-60
2023/07/31 07:36:13;;;;;;;;;;;19.10;58.40;;;;;;5071859;28;19924;-57
2023/07/31 07:38:41;;;;;;;;;;;19.20;57.00;;;;;;5074061;28;19925;-59
2023/07/31 07:41:08;;;;;;;;;;;19.20;56.50;;;;;;5074372;28;20007;-59
2023/07/31 07:43:35;;;;;;;;;;;19.20;56.80;;;;;;5067061;28;20270;-59
2023/07/31 07:46:02;;;;;;;;;;;19.20;57.00;;;;;;5077420;28;19955;-59
2023/07/31 07:48:29;;;;;;;;;;;19.20;56.60;;;;;;5075490;28;19972;-58
2023/07/31 07:50:56;;;;;;;;;;;19.30;58.40;;;;;;5073485;28;19932;-58
2023/07/31 07:53:23;;;;;;;;;;;19.30;57.10;;;;;;5075266;28;19936;-59
2023/07/31 07:55:50;;;;;;;;;;;19.30;57.10;;;;;;5065433;28;19925;-61
2023/07/31 07:58:17;;;;;;;;;;;19.30;57.50;;;;;;5079867;28;20748;-60
2023/07/31 08:00:51;;;;;;;;;;;19.30;56.60;;;;;;5073913;28;20389;-59
2023/07/31 08:03:18;;;;;;;;;;;19.30;56.40;;;;;;5072648;28;20230;-61
2023/07/31 08:05:45;;;;;;;;;;;19.30;57.70;;;;;;5073584;28;19925;-62
2023/07/31 08:08:18;;;;;;;;;;;19.30;56.40;;;;;;5072214;28;20070;-59
2023/07/31 08:10:45;;;;;;;;;;;19.30;56.70;;;;;;5074254;28;19928;-61
2023/07/31 08:13:12;;;;;;;;;;;19.40;57.60;;;;;;5071929;28;20047;-62
2023/07/31 08:15:42;;;;;;;;;;;19.40;57.60;;;;;;5078573;28;20434;-60
2023/07/31 08:18:11;;;;;;;;;;;19.40;57.60;;;;;;5073514;28;19978;-60
2023/07/31 08:20:38;;;;;;;;;;;19.40;56.90;;;;;;5071845;28;20006;-60
2023/07/31 08:23:05;;;;;;;;;;;19.40;57.70;;;;;;5071638;28;20019;-61
2023/07/31 08:25:34;;;;;;;;;;;19.40;57.80;;;;;;5074676;28;19924;-62
2023/07/31 08:28:01;;;;;;;;;;;19.50;57.90;;;;;;5072188;28;20410;-61
2023/07/31 08:30:29;;;;;;;;;;;19.50;57.70;;;;;;5074220;28;20038;-60
2023/07/31 08:32:56;;;;;;;;;;;19.50;56.90;;;;;;5077647;28;19924;-61
2023/07/31 08:35:24;;;;;;;;;;;19.50;57.80;;;;;;5070614;28;19925;-58
2023/07/31 08:37:50;;;;;;;;;;;19.50;58.30;;;;;;5072274;28;19936;-59
2023/07/31 08:40:18;;;;;;;;;;;19.50;58.10;;;;;;5079548;28;19932;-58
2023/07/31 08:42:46;;;;;;;;;;;19.60;57.20;;;;;;5083296;28;19924;-59
2023/07/31 08:45:17;;;;;;;;;;;19.60;58.40;;;;;;5078027;28;19933;-59
2023/07/31 08:47:44;;;;;;;;;;;19.60;58.10;;;;;;5074721;28;19928;-57
2023/07/31 08:50:15;;;;;;;;;;;19.60;58.10;;;;;;5074653;28;19924;-59
2023/07/31 08:52:42;;;;;;;;;;;19.60;58.40;;;;;;5072709;28;20261;-59
2023/07/31 08:55:09;;;;;;;;;;;19.70;58.10;;;;;;5072482;28;19967;-60
2023/07/31 08:57:37;;;;;;;;;;;19.70;58.50;;;;;;5075549;28;19967;-59
2023/07/31 09:00:08;;;;;;;;;;;19.70;58.40;;;;;;5074138;28;19968;-59
2023/07/31 09:02:41;;;;;;;;;;;19.70;58.20;;;;;;5075967;28;19978;-61
2023/07/31 09:05:09;;;;;;;;;;;19.70;57.70;;;;;;5070416;28;19932;-59
2023/07/31 09:07:36;;;;;;;;;;;19.80;58.10;;;;;;5073243;28;20035;-59
2023/07/31 09:10:03;;;;;;;;;;;19.80;58.00;;;;;;5074076;28;19931;-59
2023/07/31 09:12:31;;;;;;;;;;;19.90;57.70;;;;;;5073253;28;19936;-61
2023/07/31 09:14:58;;;;;;;;;;;19.90;57.80;;;;;;5070056;28;20002;-60
2023/07/31 09:17:32;;;;;;;;;;;19.90;57.70;;;;;;5074687;28;19940;-62
2023/07/31 09:20:12;;;;;;;;;;;19.90;57.10;;;;;;5076969;28;19959;-60
2023/07/31 09:22:40;;;;;;;;;;;20.00;57.50;;;;;;5073237;28;19924;-61
2023/07/31 09:25:16;;;;;;;;;;;20.00;58.10;;;;;;5075736;28;20369;-61
2023/07/31 09:27:50;;;;;;;;;;;20.00;57.90;;;;;;5073112;28;20289;-62
2023/07/31 09:30:17;;;;;;;;;;;20.00;58.40;;;;;;5075512;28;19932;-64
2023/07/31 09:32:45;;;;;;;;;;;20.00;58.40;;;;;;5077706;28;20628;-61
2023/07/31 09:35:19;;;;;;;;;;;20.10;58.20;;;;;;5075451;28;19924;-59
2023/07/31 09:37:50;;;;;;;;;;;20.10;58.30;;;;;;5072838;28;19936;-60
2023/07/31 09:40:28;;;;;;;;;;;20.10;58.80;;;;;;5073426;28;19932;-60
2023/07/31 09:42:59;;;;;;;;;;;20.20;57.70;;;;;;5076146;28;19928;-60
2023/07/31 09:45:27;;;;;;;;;;;20.20;57.60;;;;;;5076804;28;20414;-58
2023/07/31 09:48:09;;;;;;;;;;;20.30;57.80;;;;;;5075227;28;19932;-58
2023/07/31 09:50:39;;;;;;;;;;;20.30;58.00;;;;;;5075702;28;19935;-59
2023/07/31 09:53:07;;;;;;;;;;;20.30;58.20;;;;;;5076266;28;19940;-63
2023/07/31 09:55:35;;;;;;;;;;;20.40;57.70;;;;;;5074673;28;19936;-60
2023/07/31 09:58:06;;;;;;;;;;;20.40;57.50;;;;;;5074891;28;19932;-61
2023/07/31 10:00:34;;;;;;;;;;;20.40;57.00;;;;;;5074091;28;20354;-62
2023/07/31 10:03:02;;;;;;;;;;;20.40;57.20;;;;;;5076375;28;19977;-61
2023/07/31 10:05:34;;;;;;;;;;;20.50;56.00;;;;;;5074851;28;19924;-64
2023/07/31 10:08:01;;;;;;;;;;;20.40;56.10;;;;;;5080416;28;19968;-61
2023/07/31 10:10:29;;;;;;;;;;;20.50;55.80;;;;;;5078975;28;19948;-62
2023/07/31 10:12:56;;;;;;;;;;;20.40;54.90;;;;;;5077032;28;19932;-61
2023/07/31 10:15:23;;;;;;;;;;;20.40;54.10;;;;;;5077144;28;19928;-62
2023/07/31 10:17:51;;;;;;;;;;;20.40;54.00;;;;;;5083181;28;19928;-61
2023/07/31 10:20:18;;;;;;;;;;;20.40;53.90;;;;;;5079135;28;19924;-60
2023/07/31 10:22:46;;;;;;;;;;;20.40;54.20;;;;;;5075392;28;20333;-61
2023/07/31 10:25:15;;;;;;;;;;;20.30;54.00;;;;;;5075812;28;19939;-60
2023/07/31 10:27:42;;;;;;;;;;;20.40;54.00;;;;;;5074426;28;20289;-64
2023/07/31 10:30:12;;;;;;;;;;;20.30;54.30;;;;;;5081738;28;20307;-60
2023/07/31 10:32:40;;;;;;;;;;;20.40;54.60;;;;;;5076636;28;20397;-61
2023/07/31 10:35:09;;;;;;;;;;;20.40;55.10;;;;;;5074433;28;20522;-61
2023/07/31 10:37:38;;;;;;;;;;;20.40;54.30;;;;;;5074232;28;19947;-61
2023/07/31 10:40:06;;;;;;;;;;;20.40;54.20;;;;;;5076349;28;19970;-61
2023/07/31 10:42:35;;;;;;;;;;;20.40;54.20;;;;;;5074171;28;19950;-60
2023/07/31 10:45:03;;;;;;;;;;;20.40;55.10;;;;;;5076438;28;19924;-62
2023/07/31 10:47:30;;;;;;;;;;;20.40;54.10;;;;;;5081770;28;19932;-59
2023/07/31 10:50:19;;;;;;;;;;;20.40;54.00;;;;;;5077754;28;19955;-61
2023/07/31 10:52:49;;;;;;;;;;;20.40;53.70;;;;;;5077046;28;19935;-60
2023/07/31 10:55:25;;;;;;;;;;;20.30;53.70;;;;;;5074329;28;19936;-60
2023/07/31 10:57:53;;;;;;;;;;;20.30;53.10;;;;;;5073480;28;19959;-62
2023/07/31 11:00:23;;;;;;;;;;;20.30;53.20;;;;;;5076428;28;20007;-61
2023/07/31 11:02:58;;;;;;;;;;;20.30;53.90;;;;;;5074176;28;20351;-63
2023/07/31 11:05:45;;;;;;;;;;;20.30;54.50;;;;;;5071262;28;20450;-63
2023/07/31 11:08:14;;;;;;;;;;;20.30;54.10;;;;;;5069863;28;19942;-61
2023/07/31 11:10:45;;;;;;;;;;;20.30;53.70;;;;;;5077838;28;19933;-60
2023/07/31 11:13:13;;;;;;;;;;;20.30;53.70;;;;;;5076354;28;19932;-61
2023/07/31 11:15:40;;;;;;;;;;;20.30;54.10;;;;;;5075793;28;20543;-62
2023/07/31 11:18:10;;;;;;;;;;;20.30;53.40;;;;;;5082060;28;20023;-62
2023/07/31 11:20:38;;;;;;;;;;;20.30;53.50;;;;;;5079552;28;19951;-62
2023/07/31 11:23:09;;;;;;;;;;;20.30;53.90;;;;;;5076134;28;20015;-62
2023/07/31 11:25:37;;;;;;;;;;;20.30;53.30;;;;;;5075033;28;19939;-61
2023/07/31 11:28:05;;;;;;;;;;;20.30;53.30;;;;;;5073611;28;19950;-63
2023/07/31 11:30:32;;;;;;;;;;;20.30;53.30;;;;;;5077348;28;19928;-62
2023/07/31 11:33:02;;;;;;;;;;;20.30;53.60;;;;;;5076574;28;20422;-60
2023/07/31 11:35:30;;;;;;;;;;;20.30;54.10;;;;;;5079058;28;19936;-62
2023/07/31 11:37:58;;;;;;;;;;;20.40;54.20;;;;;;5077735;28;19955;-63
2023/07/31 11:40:28;;;;;;;;;;;20.40;54.00;;;;;;5076283;28;19932;-63
2023/07/31 11:43:03;;;;;;;;;;;20.40;54.00;;;;;;5075528;28;19928;-62
2023/07/31 11:45:30;;;;;;;;;;;20.40;54.00;;;;;;5077639;28;19929;-62
2023/07/31 11:47:58;;;;;;;;;;;20.40;54.10;;;;;;5075424;28;19946;-60
2023/07/31 11:50:26;;;;;;;;;;;20.50;54.00;;;;;;5073490;28;19932;-59
2023/07/31 11:52:57;;;;;;;;;;;20.50;53.90;;;;;;5076639;28;19939;-60
2023/07/31 11:55:24;;;;;;;;;;;20.50;54.40;;;;;;5079612;28;19978;-61
2023/07/31 11:57:51;;;;;;;;;;;20.50;54.00;;;;;;5075504;28;19925;-61
2023/07/31 12:00:19;;;;;;;;;;;20.60;53.80;;;;;;5071739;28;19925;-60
2023/07/31 12:02:46;;;;;;;;;;;20.60;53.80;;;;;;5078880;28;19931;-61
2023/07/31 12:05:13;;;;;;;;;;;20.60;54.20;;;;;;5078403;28;20402;-61
2023/07/31 12:07:44;;;;;;;;;;;20.70;54.10;;;;;;5076984;28;20400;-58
2023/07/31 12:10:11;;;;;;;;;;;20.70;54.00;;;;;;5078577;28;20287;-60
2023/07/31 12:12:38;;;;;;;;;;;20.70;53.90;;;;;;5068962;28;19936;-61
2023/07/31 12:15:16;;;;;;;;;;;20.70;54.50;;;;;;5076904;28;19936;-58
2023/07/31 12:17:47;;;;;;;;;;;20.80;54.30;;;;;;5083706;28;19929;-59
2023/07/31 12:20:14;;;;;;;;;;;20.80;54.40;;;;;;5076462;28;20319;-61
2023/07/31 12:22:41;;;;;;;;;;;20.80;54.50;;;;;;5080786;28;19959;-59
2023/07/31 12:25:18;;;;;;;;;;;20.80;54.40;;;;;;5087184;28;19924;-61
2023/07/31 12:27:45;;;;;;;;;;;20.90;54.60;;;;;;5085574;28;19971;-58
2023/07/31 12:30:29;;;;;;;;;;;20.90;54.60;;;;;;5086333;28;19963;-60
2023/07/31 12:32:56;;;;;;;;;;;20.90;54.70;;;;;;5077899;28;19925;-62
2023/07/31 12:35:23;;;;;;;;;;;20.90;54.70;;;;;;5080946;28;20050;-63
2023/07/31 12:37:50;;;;;;;;;;;20.90;54.80;;;;;;5083173;28;20007;-62
2023/07/31 12:40:17;;;;;;;;;;;21.00;54.90;;;;;;5084126;28;20433;-61
2023/07/31 12:42:53;;;;;;;;;;;21.00;54.80;;;;;;5073840;28;19929;-62
2023/07/31 12:45:21;;;;;;;;;;;21.00;55.00;;;;;;5085421;28;20019;-61
2023/07/31 12:47:49;;;;;;;;;;;21.10;55.20;;;;;;5081157;28;20003;-60
2023/07/31 12:50:16;;;;;;;;;;;21.10;55.20;;;;;;5075074;28;19951;-62
2023/07/31 12:52:43;;;;;;;;;;;21.20;55.30;;;;;;5076420;28;19948;-60
2023/07/31 12:55:10;;;;;;;;;;;21.20;55.30;;;;;;5082350;28;19975;-60
2023/07/31 12:57:39;;;;;;;;;;;21.20;55.30;;;;;;5076158;28;20007;-62
2023/07/31 13:00:07;;;;;;;;;;;21.20;55.10;;;;;;5075545;28;20001;-60
2023/07/31 13:02:33;;;;;;;;;;;21.20;55.00;;;;;;5074847;28;19967;-59
2023/07/31 13:05:00;;;;;;;;;;;21.30;55.00;;;;;;5077193;28;20021;-61
2023/07/31 13:07:27;;;;;;;;;;;21.30;54.90;;;;;;5076918;28;19925;-59
2023/07/31 13:09:55;;;;;;;;;;;21.30;54.90;;;;;;5077729;28;20323;-60
2023/07/31 13:12:22;;;;;;;;;;;21.30;55.10;;;;;;5080765;28;19963;-62
2023/07/31 13:14:49;;;;;;;;;;;21.30;54.90;;;;;;5084553;28;20396;-61
2023/07/31 13:17:19;;;;;;;;;;;21.40;55.20;;;;;;5075987;28;19939;-59
2023/07/31 13:19:46;;;;;;;;;;;21.40;55.60;;;;;;5080169;28;20051;-63
2023/07/31 13:22:14;;;;;;;;;;;21.40;55.90;;;;;;5077511;28;19933;-61
2023/07/31 13:24:41;;;;;;;;;;;21.50;56.00;;;;;;5072677;28;20044;-59
2023/07/31 13:27:08;;;;;;;;;;;21.50;55.80;;;;;;5075973;28;19925;-59
2023/07/31 13:29:35;;;;;;;;;;;21.50;56.00;;;;;;5075866;28;20365;-58
2023/07/31 13:32:02;;;;;;;;;;;21.50;55.70;;;;;;5081064;28;20003;-58
2023/07/31 13:34:29;;;;;;;;;;;21.50;55.60;;;;;;5072757;28;19993;-59
2023/07/31 13:36:56;;;;;;;;;;;21.60;55.40;;;;;;5067272;28;19963;-57
2023/07/31 13:39:23;;;;;;;;;;;21.60;55.70;;;;;;5067954;28;19981;-57
2023/07/31 13:41:50;;;;;;;;;;;21.60;55.50;;;;;;5071827;28;19924;-58
2023/07/31 13:44:17;;;;;;;;;;;21.60;55.30;;;;;;5076943;28;20025;-59
2023/07/31 13:46:44;;;;;;;;;;;21.70;55.40;;;;;;5073321;28;20015;-59
2023/07/31 13:49:11;;;;;;;;;;;21.70;55.30;;;;;;5074675;28;19932;-59
2023/07/31 13:51:39;;;;;;;;;;;21.70;55.50;;;;;;5071496;28;19959;-58
2023/07/31 13:54:06;;;;;;;;;;;21.70;55.70;;;;;;5074026;28;19924;-58
2023/07/31 13:56:33;;;;;;;;;;;21.70;56.50;;;;;;5072912;28;20030;-60
2023/07/31 13:59:01;;;;;;;;;;;21.70;55.70;;;;;;5080837;28;20030;-59
2023/07/31 14:01:28;;;;;;;;;;;21.70;55.60;;;;;;5074487;28;19928;-60
2023/07/31 14:03:55;;;;;;;;;;;21.70;57.00;;;;;;5073426;28;19929;-59
2023/07/31 14:06:22;;;;;;;;;;;21.80;64.90;;;;;;5076286;28;19940;-60
2023/07/31 14:08:49;;;;;;;;;;;22.00;70.10;;;;;;5080777;28;19971;-60
2023/07/31 14:11:17;;;;;;;;;;;22.30;72.10;;;;;;5079187;28;20010;-60
2023/07/31 14:13:44;;;;;;;;;;;22.50;72.50;;;;;;5078275;28;19966;-60
2023/07/31 14:16:11;;;;;;;;;;;22.70;72.70;;;;;;5078890;28;19928;-60
2023/07/31 14:18:38;;;;;;;;;;;23.00;72.60;;;;;;5080787;28;20456;-59
2023/07/31 14:21:05;;;;;;;;;;;23.20;72.30;;;;;;5074174;28;19932;-59
2023/07/31 14:23:32;;;;;;;;;;;23.50;72.10;;;;;;5075813;28;19970;-59
2023/07/31 14:25:59;;;;;;;;;;;23.70;72.10;;;;;;5073785;28;20444;-59